Řízení letového provozu České republiky
Letiste: LKTB Aktualizace: 17.10.2017 23:36:04  UTC
 METAR LKTB 17.10. 23:30 ...
METAR LKTB 172330Z 07008KT CAVOK 10/09 Q1020 NOSIG RMK REG QNH 1017=
 TAF LKTB 17.10. 23:00 ...
TAF LKTB 172300Z 1800/1906 09004KT 6000 NSC      BECMG 1800/1802 3000 BR SCT007      TEMPO 1802/1808 1300 BR BKN005      BECMG 1808/1810 15010KT 7000 BKN020      TEMPO 1811/1818 9999 SCT030      BECMG 1818/1821 07004KT      TEMPO 1902/1906 2500 BR BKN010=